createdAt,value
2022-11-27T00:11:57.466Z,1028.56
2022-11-27T00:25:57.545Z,1028.7
2022-11-27T00:39:57.544Z,1028.55
2022-11-27T00:53:57.612Z,1028.71
2022-11-27T01:07:57.767Z,1028.67
2022-11-27T01:21:57.689Z,1028.7
2022-11-27T01:35:57.754Z,1028.71
2022-11-27T01:49:57.885Z,1028.6100000000001
2022-11-27T02:03:58.030Z,1028.35
2022-11-27T02:17:58.189Z,1028.45
2022-11-27T02:31:58.153Z,1028.3899999999999
2022-11-27T02:45:58.225Z,1028.4
2022-11-27T02:59:58.178Z,1028.3600000000001
2022-11-27T03:13:58.184Z,1028.25
2022-11-27T03:27:58.187Z,1028.29
2022-11-27T03:41:58.201Z,1028.27
2022-11-27T03:55:58.198Z,1028.17
2022-11-27T04:09:58.229Z,1028.12
2022-11-27T04:23:58.258Z,1028.05
2022-11-27T04:37:58.263Z,1028.0700000000002
2022-11-27T04:51:58.248Z,1028.04
2022-11-27T05:05:58.261Z,1028.03
2022-11-27T05:19:58.255Z,1028.19
2022-11-27T05:33:58.278Z,1028.0700000000002
2022-11-27T05:47:58.298Z,1028
2022-11-27T06:01:58.427Z,1028.17
2022-11-27T06:15:58.482Z,1028.28
2022-11-27T06:30:58.471Z,1028.3600000000001
2022-11-27T06:45:58.535Z,1028.3899999999999
2022-11-27T07:00:58.529Z,1028.35
2022-11-27T07:15:58.481Z,1028.4
2022-11-27T07:31:58.548Z,1028.6799999999998
2022-11-27T07:46:58.476Z,1028.51
2022-11-27T08:01:58.625Z,1028.3899999999999
2022-11-27T08:16:58.666Z,1028.51
2022-11-27T08:31:58.730Z,1028.4099999999999
2022-11-27T08:46:58.649Z,1028.31
2022-11-27T09:01:58.654Z,1028.31
2022-11-27T09:16:58.713Z,1028.54
2022-11-27T09:31:58.734Z,1028.51
2022-11-27T09:46:58.745Z,1028.35
2022-11-27T10:01:58.863Z,1028.28
2022-11-27T10:16:58.743Z,1028.1599999999999
2022-11-27T10:31:58.802Z,1027.79
2022-11-27T10:46:59.060Z,1027.75
2022-11-27T11:01:59.077Z,1027.35
2022-11-27T11:16:59.021Z,1027.3200000000002
2022-11-27T11:31:59.080Z,1026.83
2022-11-27T11:46:59.028Z,1026.81
2022-11-27T12:01:59.120Z,1026.71
2022-11-27T12:16:59.260Z,1026.55
2022-11-27T12:32:59.216Z,1026.33
2022-11-27T12:47:59.206Z,1026.1
2022-11-27T13:02:59.360Z,1026
2022-11-27T13:17:59.261Z,1025.77
2022-11-27T13:32:59.274Z,1025.72
2022-11-27T13:47:59.262Z,1025.6799999999998
2022-11-27T14:02:59.346Z,1025.47
2022-11-27T14:17:59.434Z,1025.38
2022-11-27T14:32:59.459Z,1025.26
2022-11-27T14:47:59.503Z,1025.19
2022-11-27T15:02:59.757Z,1025.1399999999999
2022-11-27T15:18:59.563Z,1025.1399999999999
2022-11-27T15:33:59.546Z,1025
2022-11-27T15:48:59.653Z,1024.96
2022-11-27T16:04:59.745Z,1024.9099999999999
2022-11-27T16:25:53.037Z,1024.99
2022-11-27T16:39:53.067Z,1024.8899999999999
2022-11-27T16:53:53.495Z,1024.75
2022-11-27T17:07:53.749Z,1024.6599999999999
2022-11-27T17:21:54.606Z,1024.5
2022-11-27T17:35:53.761Z,1024.35
2022-11-27T17:49:53.852Z,1024.29
2022-11-27T18:03:53.883Z,1024.28
2022-11-27T18:17:54.087Z,1024.3200000000002
2022-11-27T18:31:54.140Z,1024.0700000000002
2022-11-27T18:45:54.077Z,1024.08
2022-11-27T18:59:54.079Z,1024.06
2022-11-27T19:13:54.076Z,1023.97
2022-11-27T19:27:54.144Z,1024.03
2022-11-27T19:41:54.084Z,1024.03
2022-11-27T19:55:54.286Z,1024.02
2022-11-27T20:09:54.283Z,1023.97
2022-11-27T20:23:54.345Z,1023.95
2022-11-27T20:37:56.906Z,1023.99
2022-11-27T20:51:54.462Z,1023.81
2022-11-27T21:05:54.481Z,1023.91
2022-11-27T21:19:54.558Z,1023.67
2022-11-27T21:33:54.627Z,1023.44
2022-11-27T21:47:54.614Z,1023.28
2022-11-27T22:01:54.716Z,1023.29
2022-11-27T22:15:54.605Z,1023.28
2022-11-27T22:29:54.611Z,1023.17
2022-11-27T22:43:54.611Z,1023.12
2022-11-27T22:57:54.830Z,1023.04
2022-11-27T23:11:54.796Z,1022.76
2022-11-27T23:25:54.794Z,1022.87
2022-11-27T23:39:54.799Z,1022.85
2022-11-27T23:53:54.855Z,1022.65
